createdAt,value
2019-01-26T00:01:07.957Z,95257.49
2019-01-26T00:03:39.412Z,95265.20
2019-01-26T00:06:12.109Z,95260.41
2019-01-26T00:08:43.611Z,95260.78
2019-01-26T00:11:15.595Z,95255.14
2019-01-26T00:13:47.047Z,95256.05
2019-01-26T00:16:21.141Z,95250.12
2019-01-26T00:18:52.156Z,95246.42
2019-01-26T00:21:23.625Z,95244.02
2019-01-26T00:23:56.146Z,95248.12
2019-01-26T00:26:29.708Z,95247.09
2019-01-26T00:29:01.183Z,95250.42
2019-01-26T00:31:32.660Z,95243.47
2019-01-26T00:34:04.080Z,95246.98
2019-01-26T00:36:35.542Z,95244.95
2019-01-26T00:39:09.854Z,95235.14
2019-01-26T00:41:41.364Z,95233.89
2019-01-26T00:44:13.810Z,95223.83
2019-01-26T00:46:45.271Z,95229.13
2019-01-26T00:49:16.686Z,95223.16
2019-01-26T00:51:48.154Z,95217.62
2019-01-26T00:54:19.578Z,95214.58
2019-01-26T00:56:51.056Z,95201.31
2019-01-26T00:59:22.466Z,95197.56
2019-01-26T01:01:53.970Z,95192.56
2019-01-26T01:04:25.673Z,95187.88
2019-01-26T01:06:57.106Z,95186.27
2019-01-26T01:09:28.530Z,95183.22
2019-01-26T01:12:00.000Z,95180.44
2019-01-26T01:14:31.500Z,95172.98
2019-01-26T01:17:02.958Z,95167.40
2019-01-26T01:19:35.346Z,95168.33
2019-01-26T01:22:06.810Z,95162.27
2019-01-26T01:24:38.162Z,95159.30
2019-01-26T01:27:09.645Z,95159.41
2019-01-26T01:29:42.648Z,95157.11
2019-01-26T01:32:14.116Z,95160.06
2019-01-26T01:34:47.659Z,95166.26
2019-01-26T01:37:18.972Z,95169.97
2019-01-26T01:39:50.402Z,95168.22
2019-01-26T01:42:21.858Z,95161.11
2019-01-26T01:44:53.273Z,95154.97
2019-01-26T01:47:24.714Z,95151.33
2019-01-26T01:50:01.543Z,95136.02
2019-01-26T01:52:33.015Z,95135.42
2019-01-26T01:55:04.484Z,95129.92
2019-01-26T01:57:37.414Z,95138.91
2019-01-26T02:00:16.894Z,95138.49
2019-01-26T02:02:48.354Z,95139.05
2019-01-26T02:05:19.892Z,95142.53
2019-01-26T02:07:51.720Z,95142.17
2019-01-26T02:10:25.164Z,95136.01
2019-01-26T02:12:56.559Z,95127.66
2019-01-26T02:15:27.966Z,95118.26
2019-01-26T02:17:59.434Z,95113.09
2019-01-26T02:20:30.859Z,95110.11
2019-01-26T02:23:02.520Z,95091.47
2019-01-26T02:25:33.987Z,95095.98
2019-01-26T02:28:05.539Z,95088.66
2019-01-26T02:30:36.962Z,95093.66
2019-01-26T02:33:08.419Z,95088.11
2019-01-26T02:35:39.846Z,95084.66
2019-01-26T02:38:11.307Z,95080.16
2019-01-26T02:40:42.720Z,95080.84
2019-01-26T02:43:14.179Z,95070.02
2019-01-26T02:45:48.023Z,95068.66
2019-01-26T02:48:19.480Z,95062.29
2019-01-26T02:50:50.889Z,95059.69
2019-01-26T02:53:22.252Z,95058.16
2019-01-26T02:55:53.673Z,95059.53
2019-01-26T02:58:26.119Z,95048.45
2019-01-26T03:00:57.538Z,95041.80
2019-01-26T03:03:28.978Z,95043.75
2019-01-26T03:06:00.383Z,95040.39
2019-01-26T03:08:31.839Z,95038.31
2019-01-26T03:11:03.234Z,95041.70
2019-01-26T03:13:34.728Z,95043.77
2019-01-26T03:16:06.234Z,95038.48
2019-01-26T03:18:37.678Z,95028.63
2019-01-26T03:21:09.077Z,95031.52
2019-01-26T03:23:40.723Z,95036.27
2019-01-26T03:26:12.141Z,95041.61
2019-01-26T03:28:43.653Z,95023.27
2019-01-26T03:31:15.063Z,95019.43
2019-01-26T03:33:46.515Z,95020.61
2019-01-26T03:36:17.935Z,95016.44
2019-01-26T03:38:49.366Z,95014.58
2019-01-26T03:41:20.912Z,95007.93
2019-01-26T03:43:52.347Z,95007.77
2019-01-26T03:46:23.751Z,95016.77
2019-01-26T03:48:55.194Z,95014.16
2019-01-26T03:51:26.607Z,95022.73
2019-01-26T03:53:58.057Z,95016.68
2019-01-26T03:56:32.738Z,95001.85
2019-01-26T03:59:02.707Z,95021.70
2019-01-26T04:01:34.209Z,95007.90
2019-01-26T04:04:06.622Z,95012.94
2019-01-26T04:06:39.168Z,95009.50
2019-01-26T04:09:12.538Z,95003.45
2019-01-26T04:11:43.946Z,94995.55
2019-01-26T04:14:15.374Z,94994.99
2019-01-26T04:16:46.790Z,94996.53
2019-01-26T04:19:18.138Z,94996.73
2019-01-26T04:21:49.558Z,94998.56
2019-01-26T04:24:21.289Z,94989.91
2019-01-26T04:26:52.705Z,94989.98
2019-01-26T04:29:25.682Z,94981.07
2019-01-26T04:31:57.109Z,94986.09
2019-01-26T04:34:28.568Z,94977.54
2019-01-26T04:36:59.920Z,94974.85
2019-01-26T04:39:31.359Z,94974.13
2019-01-26T04:42:02.784Z,94964.44
2019-01-26T04:44:34.153Z,94963.77
2019-01-26T04:47:07.337Z,94963.08
2019-01-26T04:49:39.779Z,94972.10
2019-01-26T04:52:11.232Z,94962.97
2019-01-26T04:54:42.735Z,94971.92
2019-01-26T04:57:14.155Z,94966.05
2019-01-26T04:59:48.584Z,94976.75
2019-01-26T05:02:20.042Z,94969.81
2019-01-26T05:04:51.536Z,94982.89
2019-01-26T05:07:23.015Z,94973.67
2019-01-26T05:09:54.461Z,94964.47
2019-01-26T05:12:25.973Z,94967.62
2019-01-26T05:14:57.446Z,94960.56
2019-01-26T05:17:28.892Z,94958.81
2019-01-26T05:20:00.349Z,94967.03
2019-01-26T05:22:31.785Z,94950.69
2019-01-26T05:25:03.231Z,94952.94
2019-01-26T05:27:34.639Z,94947.27
2019-01-26T05:30:10.251Z,94948.52
2019-01-26T05:32:41.665Z,94942.28
2019-01-26T05:35:13.111Z,94935.98
2019-01-26T05:37:45.893Z,94933.61
2019-01-26T05:40:17.724Z,94934.28
2019-01-26T05:42:50.826Z,94936.64
2019-01-26T05:45:25.775Z,94936.84
2019-01-26T05:47:58.297Z,94938.03
2019-01-26T05:50:29.760Z,94928.67
2019-01-26T05:53:01.181Z,94927.76
2019-01-26T05:55:32.712Z,94932.15
2019-01-26T05:58:04.336Z,94940.72
2019-01-26T06:00:36.638Z,94929.83
2019-01-26T06:03:08.051Z,94929.66
2019-01-26T06:05:42.903Z,94933.05
2019-01-26T06:08:14.309Z,94943.09
2019-01-26T06:10:45.761Z,94940.80
2019-01-26T06:13:17.191Z,94935.88
2019-01-26T06:15:48.670Z,94939.19
2019-01-26T06:18:20.067Z,94929.88
2019-01-26T06:20:51.507Z,94929.40
2019-01-26T06:23:22.927Z,94925.39
2019-01-26T06:25:54.385Z,94924.87
2019-01-26T06:28:25.810Z,94926.05
2019-01-26T06:30:58.495Z,94926.73
2019-01-26T06:33:29.935Z,94926.06
2019-01-26T06:36:01.391Z,94919.86
2019-01-26T06:38:32.728Z,94922.05
2019-01-26T06:41:05.897Z,94918.22
2019-01-26T06:43:38.407Z,94920.42
2019-01-26T06:46:11.345Z,94921.44
2019-01-26T06:48:42.693Z,94912.75
2019-01-26T06:51:14.127Z,94928.37
2019-01-26T06:53:45.555Z,94926.11
2019-01-26T06:56:16.991Z,94923.38
2019-01-26T06:58:48.417Z,94935.16
2019-01-26T07:01:19.789Z,94933.79
2019-01-26T07:03:51.219Z,94929.33
2019-01-26T07:06:27.503Z,94943.13
2019-01-26T07:08:59.103Z,94936.02
2019-01-26T07:11:30.527Z,94939.73
2019-01-26T07:14:02.003Z,94943.88
2019-01-26T07:16:33.431Z,94937.66
2019-01-26T07:19:04.841Z,94944.88
2019-01-26T07:21:36.279Z,94939.02
2019-01-26T07:24:07.682Z,94937.47
2019-01-26T07:26:39.133Z,94928.34
2019-01-26T07:29:10.578Z,94927.52
2019-01-26T07:31:42.048Z,94926.60
2019-01-26T07:34:13.470Z,94931.25
2019-01-26T07:36:44.904Z,94935.28
2019-01-26T07:39:16.275Z,94940.94
2019-01-26T07:41:47.734Z,94942.49
2019-01-26T07:44:19.066Z,94947.33
2019-01-26T07:46:53.245Z,94939.39
2019-01-26T07:49:24.657Z,94938.30
2019-01-26T07:51:56.104Z,94942.48
2019-01-26T07:54:29.958Z,94932.98
2019-01-26T07:57:01.371Z,94945.98
2019-01-26T07:59:32.790Z,94945.88
2019-01-26T08:02:04.236Z,94941.40
2019-01-26T08:04:35.659Z,94938.09
2019-01-26T08:07:07.509Z,94932.45
2019-01-26T08:09:38.959Z,94943.05
2019-01-26T08:12:12.073Z,94938.30
2019-01-26T08:14:44.804Z,94939.48
2019-01-26T08:17:16.294Z,94950.91
2019-01-26T08:19:47.693Z,94953.90
2019-01-26T08:22:20.643Z,94950.44
2019-01-26T08:24:52.075Z,94939.02
2019-01-26T08:27:24.528Z,94937.34
2019-01-26T08:29:55.939Z,94944.13
2019-01-26T08:32:27.380Z,94941.83
2019-01-26T08:34:58.834Z,94944.84
2019-01-26T08:37:30.353Z,94946.84
2019-01-26T08:40:01.784Z,94940.27
2019-01-26T08:42:33.231Z,94941.71
2019-01-26T08:45:06.657Z,94931.58
2019-01-26T08:47:38.121Z,94945.58
2019-01-26T08:50:25.384Z,94949.23
2019-01-26T08:52:56.848Z,94951.22
2019-01-26T08:55:28.258Z,94948.12
2019-01-26T08:58:00.763Z,94952.77
2019-01-26T09:00:32.189Z,94951.20
2019-01-26T09:03:19.711Z,94950.63
2019-01-26T09:06:02.529Z,94960.12
2019-01-26T09:08:34.119Z,94954.86
2019-01-26T09:11:05.671Z,94954.77
2019-01-26T09:13:37.041Z,94956.18
2019-01-26T09:16:11.069Z,94961.21
2019-01-26T09:18:42.575Z,94959.91
2019-01-26T09:21:13.997Z,94956.53
2019-01-26T09:23:45.455Z,94958.08
2019-01-26T09:26:18.495Z,94953.49
2019-01-26T09:28:50.681Z,94951.86
2019-01-26T09:31:23.880Z,94953.75
2019-01-26T09:33:55.310Z,94961.12
2019-01-26T09:36:26.749Z,94965.48
2019-01-26T09:38:58.195Z,94960.25
2019-01-26T09:41:29.666Z,94951.14
2019-01-26T09:44:01.150Z,94948.05
2019-01-26T09:46:32.789Z,94958.23
2019-01-26T09:49:05.310Z,94960.50
2019-01-26T09:51:37.200Z,94960.50
2019-01-26T09:54:08.845Z,94969.58
2019-01-26T09:56:40.271Z,94970.86
2019-01-26T09:59:11.770Z,94965.70
2019-01-26T10:01:43.206Z,94967.78
2019-01-26T10:04:15.574Z,94973.36
2019-01-26T10:06:47.054Z,94969.55
2019-01-26T10:09:18.622Z,94965.25
2019-01-26T10:11:50.095Z,94959.80
2019-01-26T10:14:21.565Z,94959.78
2019-01-26T10:16:53.028Z,94964.06
2019-01-26T10:19:24.446Z,94964.41
2019-01-26T10:21:56.004Z,94964.02
2019-01-26T10:24:27.877Z,94970.24
2019-01-26T10:26:59.296Z,94965.64
2019-01-26T10:29:30.832Z,94964.38
2019-01-26T10:32:02.307Z,94960.93
2019-01-26T10:34:33.742Z,94956.73
2019-01-26T10:37:11.281Z,94952.88
2019-01-26T10:39:45.764Z,94948.01
2019-01-26T10:42:23.984Z,94942.16
2019-01-26T10:44:58.026Z,94932.37
2019-01-26T10:47:29.544Z,94927.36
2019-01-26T10:50:02.494Z,94919.85
2019-01-26T10:52:33.961Z,94918.77
2019-01-26T10:55:08.506Z,94918.06
2019-01-26T10:57:40.029Z,94913.28
2019-01-26T11:00:15.459Z,94914.56
2019-01-26T11:02:46.918Z,94904.81
2019-01-26T11:05:18.721Z,94900.55
2019-01-26T11:07:50.199Z,94893.25
2019-01-26T11:10:21.660Z,94894.03
2019-01-26T11:12:53.117Z,94890.41
2019-01-26T11:15:24.622Z,94889.41
2019-01-26T11:17:56.066Z,94881.35
2019-01-26T11:20:29.160Z,94878.68
2019-01-26T11:23:00.656Z,94869.20
2019-01-26T11:25:34.459Z,94863.03
2019-01-26T11:28:05.895Z,94875.14
2019-01-26T11:30:38.413Z,94864.17
2019-01-26T11:33:09.877Z,94864.86
2019-01-26T11:35:41.337Z,94864.35
2019-01-26T11:38:13.084Z,94868.94
2019-01-26T11:40:51.037Z,94857.28
2019-01-26T11:43:36.716Z,94857.77
2019-01-26T11:46:16.884Z,94848.17
2019-01-26T11:48:50.539Z,94839.16
2019-01-26T11:51:32.928Z,94844.59
2019-01-26T11:54:04.369Z,94838.97
2019-01-26T11:56:47.741Z,94834.64
2019-01-26T11:59:19.323Z,94827.36
2019-01-26T12:02:10.826Z,94820.55
2019-01-26T12:04:50.387Z,94821.17
2019-01-26T12:07:26.917Z,94816.30
2019-01-26T12:09:58.391Z,94818.64
2019-01-26T12:12:29.889Z,94805.27
2019-01-26T12:15:01.252Z,94812.53
2019-01-26T12:17:32.771Z,94798.58
2019-01-26T12:20:04.994Z,94804.57
2019-01-26T12:22:36.595Z,94802.10
2019-01-26T12:25:08.197Z,94795.23
2019-01-26T12:27:40.189Z,94789.28
2019-01-26T12:30:13.291Z,94788.11
2019-01-26T12:32:44.700Z,94791.64
2019-01-26T12:35:16.181Z,94791.87
2019-01-26T12:37:48.867Z,94789.75
2019-01-26T12:40:20.316Z,94783.61
2019-01-26T12:42:51.751Z,94784.64
2019-01-26T12:45:23.295Z,94781.49
2019-01-26T12:47:55.925Z,94778.80
2019-01-26T12:50:27.446Z,94779.37
2019-01-26T12:52:59.034Z,94772.48
2019-01-26T12:55:30.643Z,94779.17
2019-01-26T12:58:02.175Z,94773.28
2019-01-26T13:00:33.912Z,94774.48
2019-01-26T13:03:05.963Z,94779.00
2019-01-26T13:05:37.502Z,94777.86
2019-01-26T13:08:10.028Z,94773.28
2019-01-26T13:10:46.600Z,94768.05
2019-01-26T13:13:20.124Z,94769.68
2019-01-26T13:15:51.364Z,94767.11
2019-01-26T13:18:22.813Z,94767.95
2019-01-26T13:20:54.236Z,94758.81
2019-01-26T13:23:25.712Z,94761.61
2019-01-26T13:25:59.710Z,94767.13
2019-01-26T13:28:31.201Z,94761.61
2019-01-26T13:31:02.684Z,94762.78
2019-01-26T13:33:34.217Z,94758.89
2019-01-26T13:36:06.104Z,94763.25
2019-01-26T13:38:37.570Z,94758.67
2019-01-26T13:41:09.036Z,94759.50
2019-01-26T13:43:40.503Z,94759.03
2019-01-26T13:46:11.945Z,94757.29
2019-01-26T13:48:44.711Z,94754.83
2019-01-26T13:51:16.130Z,94748.73
2019-01-26T13:53:47.629Z,94761.23
2019-01-26T13:56:19.093Z,94760.20
2019-01-26T13:58:50.524Z,94757.51
2019-01-26T14:01:21.956Z,94760.10
2019-01-26T14:03:53.450Z,94760.66
2019-01-26T14:06:24.878Z,94761.86
2019-01-26T14:08:56.361Z,94762.45
2019-01-26T14:11:29.361Z,94761.84
2019-01-26T14:14:00.834Z,94774.50
2019-01-26T14:16:32.319Z,94771.92
2019-01-26T14:19:03.915Z,94770.98
2019-01-26T14:21:35.422Z,94768.40
2019-01-26T14:24:06.819Z,94770.52
2019-01-26T14:26:38.316Z,94765.81
2019-01-26T14:29:13.652Z,94766.42
2019-01-26T14:31:45.121Z,94767.92
2019-01-26T14:34:16.568Z,94770.30
2019-01-26T14:36:48.010Z,94773.80
2019-01-26T14:39:19.812Z,94768.04
2019-01-26T14:41:51.265Z,94765.47
2019-01-26T14:44:24.405Z,94772.51
2019-01-26T14:46:55.841Z,94769.36
2019-01-26T14:49:27.521Z,94768.52
2019-01-26T14:51:59.927Z,94762.80
2019-01-26T14:54:31.483Z,94764.19
2019-01-26T14:57:02.964Z,94766.89
2019-01-26T14:59:35.451Z,94761.05
2019-01-26T15:02:07.136Z,94761.85
2019-01-26T15:04:38.700Z,94758.91
2019-01-26T15:07:10.218Z,94760.56
2019-01-26T15:09:41.800Z,94759.52
2019-01-26T15:12:13.219Z,94756.34
2019-01-26T15:14:44.710Z,94755.75
2019-01-26T15:17:16.180Z,94752.69
2019-01-26T15:19:47.616Z,94743.59
2019-01-26T15:22:19.054Z,94733.41
2019-01-26T15:24:50.501Z,94731.05
2019-01-26T15:27:24.336Z,94732.34
2019-01-26T15:29:55.969Z,94728.84
2019-01-26T15:32:27.406Z,94730.01
2019-01-26T15:34:58.862Z,94734.10
2019-01-26T15:37:30.258Z,94733.30
2019-01-26T15:40:01.690Z,94728.03
2019-01-26T15:42:33.118Z,94732.10
2019-01-26T15:45:06.023Z,94731.41
2019-01-26T15:47:37.514Z,94724.03
2019-01-26T15:50:13.100Z,94723.44
2019-01-26T15:52:43.401Z,94716.09
2019-01-26T15:55:17.851Z,94709.98
2019-01-26T15:57:49.272Z,94705.91
2019-01-26T16:00:27.407Z,94703.22
2019-01-26T16:02:59.057Z,94697.73
2019-01-26T16:05:30.633Z,94695.61
2019-01-26T16:08:03.033Z,94697.84
2019-01-26T16:10:34.505Z,94705.77
2019-01-26T16:13:06.678Z,94706.92
2019-01-26T16:15:38.949Z,94709.41
2019-01-26T16:18:14.357Z,94702.60
2019-01-26T16:20:45.932Z,94701.92
2019-01-26T16:23:17.402Z,94702.27
2019-01-26T16:25:48.927Z,94703.20
2019-01-26T16:28:20.496Z,94698.05
2019-01-26T16:30:52.000Z,94695.25
2019-01-26T16:33:23.491Z,94687.19
2019-01-26T16:35:55.055Z,94686.45
2019-01-26T16:38:29.472Z,94689.94
2019-01-26T16:41:02.042Z,94684.36
2019-01-26T16:43:33.474Z,94684.14
2019-01-26T16:46:04.983Z,94683.08
2019-01-26T16:48:36.585Z,94690.11
2019-01-26T16:51:08.788Z,94681.42
2019-01-26T16:53:40.287Z,94679.45
2019-01-26T16:56:11.837Z,94675.14
2019-01-26T16:58:43.379Z,94670.19
2019-01-26T17:01:14.826Z,94675.22
2019-01-26T17:03:46.365Z,94672.65
2019-01-26T17:06:17.876Z,94664.13
2019-01-26T17:08:49.318Z,94670.67
2019-01-26T17:11:20.716Z,94669.59
2019-01-26T17:13:52.243Z,94660.13
2019-01-26T17:16:23.751Z,94660.25
2019-01-26T17:18:55.194Z,94662.13
2019-01-26T17:21:27.637Z,94661.67
2019-01-26T17:23:59.079Z,94653.25
2019-01-26T17:26:30.550Z,94648.91
2019-01-26T17:29:03.948Z,94652.44
2019-01-26T17:31:35.416Z,94649.05
2019-01-26T17:34:06.890Z,94644.72
2019-01-26T17:36:38.339Z,94641.92
2019-01-26T17:39:13.349Z,94635.60
2019-01-26T17:41:44.893Z,94637.35
2019-01-26T17:44:16.306Z,94647.30
2019-01-26T17:46:47.757Z,94634.31
2019-01-26T17:49:19.160Z,94638.16
2019-01-26T17:51:50.609Z,94627.87
2019-01-26T17:54:22.025Z,94624.97
2019-01-26T17:56:53.480Z,94624.03
2019-01-26T17:59:25.007Z,94627.77
2019-01-26T18:01:58.831Z,94619.34
2019-01-26T18:04:30.250Z,94617.47
2019-01-26T18:07:01.690Z,94617.36
2019-01-26T18:09:34.080Z,94607.75
2019-01-26T18:12:08.700Z,94610.11
2019-01-26T18:14:40.129Z,94608.25
2019-01-26T18:17:11.708Z,94611.86
2019-01-26T18:19:43.162Z,94599.70
2019-01-26T18:22:14.657Z,94608.72
2019-01-26T18:24:47.588Z,94601.92
2019-01-26T18:27:19.034Z,94600.28
2019-01-26T18:29:50.513Z,94600.17
2019-01-26T18:32:23.606Z,94602.61
2019-01-26T18:34:55.042Z,94599.70
2019-01-26T18:37:27.525Z,94598.75
2019-01-26T18:39:58.960Z,94599.47
2019-01-26T18:42:31.559Z,94592.31
2019-01-26T18:45:02.976Z,94582.05
2019-01-26T18:47:34.626Z,94591.17
2019-01-26T18:50:08.785Z,94580.86
2019-01-26T18:52:40.264Z,94578.19
2019-01-26T18:55:13.119Z,94582.61
2019-01-26T18:57:44.675Z,94578.64
2019-01-26T19:00:30.160Z,94568.59
2019-01-26T19:03:28.102Z,94572.21
2019-01-26T19:05:59.767Z,94570.11
2019-01-26T19:08:31.274Z,94568.45
2019-01-26T19:11:02.774Z,94567.99
2019-01-26T19:13:34.298Z,94561.20
2019-01-26T19:16:07.370Z,94565.78
2019-01-26T19:18:38.997Z,94554.89
2019-01-26T19:21:10.560Z,94556.40
2019-01-26T19:23:44.520Z,94551.18
2019-01-26T19:26:15.944Z,94543.34
2019-01-26T19:28:47.482Z,94538.27
2019-01-26T19:31:19.382Z,94534.19
2019-01-26T19:33:50.879Z,94529.08
2019-01-26T19:36:22.311Z,94528.84
2019-01-26T19:38:53.771Z,94538.09
2019-01-26T19:41:25.201Z,94533.89
2019-01-26T19:43:56.664Z,94527.22
2019-01-26T19:46:28.076Z,94527.54
2019-01-26T19:48:59.529Z,94523.92
2019-01-26T19:51:30.936Z,94522.07
2019-01-26T19:54:02.417Z,94520.33
2019-01-26T19:56:33.922Z,94513.66
2019-01-26T19:59:05.774Z,94514.83
2019-01-26T20:01:37.192Z,94519.77
2019-01-26T20:04:08.745Z,94514.97
2019-01-26T20:06:40.196Z,94508.05
2019-01-26T20:09:11.911Z,94495.57
2019-01-26T20:11:43.344Z,94499.55
2019-01-26T20:14:14.722Z,94500.82
2019-01-26T20:16:46.163Z,94495.80
2019-01-26T20:19:17.751Z,94492.52
2019-01-26T20:21:49.176Z,94489.36
2019-01-26T20:24:20.717Z,94489.47
2019-01-26T20:26:52.111Z,94485.73
2019-01-26T20:29:23.594Z,94487.14
2019-01-26T20:31:55.006Z,94495.45
2019-01-26T20:34:26.565Z,94482.83
2019-01-26T20:36:57.945Z,94474.53
2019-01-26T20:39:29.565Z,94477.89
2019-01-26T20:42:01.066Z,94482.72
2019-01-26T20:44:32.587Z,94474.53
2019-01-26T20:47:04.009Z,94464.66
2019-01-26T20:49:35.450Z,94466.34
2019-01-26T20:52:06.878Z,94465.88
2019-01-26T20:54:38.395Z,94461.09
2019-01-26T20:57:10.864Z,94457.70
2019-01-26T20:59:42.375Z,94459.94
2019-01-26T21:02:13.857Z,94450.02
2019-01-26T21:04:45.297Z,94453.97
2019-01-26T21:07:20.328Z,94447.53
2019-01-26T21:09:51.771Z,94443.70
2019-01-26T21:12:23.193Z,94438.68
2019-01-26T21:14:54.628Z,94440.77
2019-01-26T21:17:26.054Z,94438.34
2019-01-26T21:19:57.541Z,94432.73
2019-01-26T21:22:28.966Z,94431.89
2019-01-26T21:25:01.631Z,94427.02
2019-01-26T21:27:33.235Z,94416.50
2019-01-26T21:30:05.933Z,94417.19
2019-01-26T21:32:37.360Z,94409.39
2019-01-26T21:35:09.949Z,94409.72
2019-01-26T21:37:41.437Z,94412.31
2019-01-26T21:40:20.072Z,94404.36
2019-01-26T21:42:51.502Z,94398.98
2019-01-26T21:45:23.210Z,94391.27
2019-01-26T21:47:57.140Z,94391.64
2019-01-26T21:50:30.566Z,94386.73
2019-01-26T21:53:02.092Z,94393.27
2019-01-26T21:55:34.342Z,94392.09
2019-01-26T21:58:05.903Z,94385.69
2019-01-26T22:00:37.348Z,94374.58
2019-01-26T22:03:08.815Z,94377.04
2019-01-26T22:05:40.272Z,94372.84
2019-01-26T22:08:11.767Z,94375.76
2019-01-26T22:10:43.193Z,94369.67
2019-01-26T22:13:18.386Z,94369.55
2019-01-26T22:15:49.850Z,94365.10
2019-01-26T22:18:21.653Z,94364.42
2019-01-26T22:20:53.155Z,94362.53
2019-01-26T22:23:24.584Z,94352.05
2019-01-26T22:25:56.110Z,94357.52
2019-01-26T22:28:27.567Z,94348.39
2019-01-26T22:30:58.990Z,94351.18
2019-01-26T22:33:30.447Z,94349.30
2019-01-26T22:36:03.470Z,94343.48
2019-01-26T22:38:35.201Z,94337.63
2019-01-26T22:41:06.616Z,94331.41
2019-01-26T22:43:38.021Z,94331.78
2019-01-26T22:46:09.483Z,94325.22
2019-01-26T22:48:40.919Z,94330.37
2019-01-26T22:51:13.904Z,94322.59
2019-01-26T22:53:45.319Z,94318.63
2019-01-26T22:56:16.716Z,94319.52
2019-01-26T22:58:48.190Z,94312.16
2019-01-26T23:01:33.209Z,94302.64
2019-01-26T23:05:34.617Z,94305.20
2019-01-26T23:08:16.696Z,94297.61
2019-01-26T23:11:50.084Z,94290.75
2019-01-26T23:15:15.242Z,94287.67
2019-01-26T23:18:54.854Z,94270.29
2019-01-26T23:22:41.436Z,94276.53
2019-01-26T23:25:49.990Z,94268.38
2019-01-26T23:29:33.002Z,94262.33
2019-01-26T23:32:06.268Z,94258.16
2019-01-26T23:34:37.728Z,94254.81
2019-01-26T23:37:09.152Z,94243.13
2019-01-26T23:39:42.666Z,94246.29
2019-01-26T23:42:14.091Z,94241.05
2019-01-26T23:44:46.407Z,94236.61
2019-01-26T23:47:17.814Z,94231.70
2019-01-26T23:49:49.245Z,94232.08
2019-01-26T23:52:20.688Z,94219.84
2019-01-26T23:54:52.051Z,94219.51
2019-01-26T23:57:23.480Z,94217.41
2019-01-26T23:59:54.973Z,94215.50
